createdAt,value
2018-08-25T00:00:33.749Z,10.83
2018-08-25T00:03:02.447Z,10.43
2018-08-25T00:05:31.535Z,11.00
2018-08-25T00:08:00.220Z,11.40
2018-08-25T00:10:28.889Z,10.90
2018-08-25T00:12:57.881Z,11.10
2018-08-25T00:15:26.724Z,10.73
2018-08-25T00:17:55.524Z,10.83
2018-08-25T00:20:24.461Z,10.80
2018-08-25T00:22:53.269Z,10.67
2018-08-25T00:25:22.135Z,11.07
2018-08-25T00:27:50.841Z,11.20
2018-08-25T00:30:24.592Z,12.50
2018-08-25T00:32:53.553Z,12.17
2018-08-25T00:35:22.385Z,12.00
2018-08-25T00:37:51.054Z,12.27
2018-08-25T00:40:20.068Z,12.03
2018-08-25T00:42:49.063Z,11.90
2018-08-25T00:45:17.848Z,12.93
2018-08-25T00:47:46.830Z,12.30
2018-08-25T00:50:15.501Z,13.10
2018-08-25T00:52:44.432Z,13.17
2018-08-25T00:55:13.160Z,13.23
2018-08-25T00:57:42.332Z,14.20
2018-08-25T01:00:11.098Z,13.53
2018-08-25T01:02:40.064Z,12.93
2018-08-25T01:05:09.183Z,13.33
2018-08-25T01:07:38.125Z,10.97
2018-08-25T01:10:07.208Z,10.80
2018-08-25T01:12:36.119Z,9.77
2018-08-25T01:15:05.267Z,9.40
2018-08-25T01:17:33.918Z,10.23
2018-08-25T01:20:02.565Z,8.97
2018-08-25T01:22:31.357Z,9.43
2018-08-25T01:25:00.348Z,8.90
2018-08-25T01:27:29.281Z,8.97
2018-08-25T01:29:58.007Z,9.20
2018-08-25T01:32:26.953Z,7.97
2018-08-25T01:34:55.816Z,8.43
2018-08-25T01:37:24.579Z,8.30
2018-08-25T01:39:53.426Z,8.87
2018-08-25T01:42:22.216Z,8.33
2018-08-25T01:44:51.003Z,8.13
2018-08-25T01:47:19.926Z,8.37
2018-08-25T01:49:48.817Z,8.07
2018-08-25T01:52:17.655Z,8.73
2018-08-25T01:54:46.644Z,9.30
2018-08-25T01:57:15.808Z,9.67
2018-08-25T01:59:44.552Z,10.17
2018-08-25T02:02:13.216Z,10.27
2018-08-25T02:04:41.910Z,9.50
2018-08-25T02:07:10.637Z,9.83
2018-08-25T02:09:39.406Z,8.60
2018-08-25T02:12:08.231Z,7.37
2018-08-25T02:14:36.846Z,7.67
2018-08-25T02:17:05.924Z,6.97
2018-08-25T02:19:34.823Z,6.53
2018-08-25T02:22:03.639Z,6.80
2018-08-25T02:24:32.410Z,6.33
2018-08-25T02:27:01.417Z,6.47
2018-08-25T02:29:30.183Z,6.57
2018-08-25T02:31:58.976Z,6.43
2018-08-25T02:34:27.763Z,6.70
2018-08-25T02:36:56.895Z,6.50
2018-08-25T02:39:25.588Z,6.63
2018-08-25T02:41:54.320Z,5.97
2018-08-25T02:44:23.037Z,6.17
2018-08-25T02:46:51.856Z,6.13
2018-08-25T02:49:20.737Z,6.30
2018-08-25T02:51:49.671Z,6.67
2018-08-25T02:54:18.461Z,5.70
2018-08-25T02:56:47.533Z,5.50
2018-08-25T02:59:16.234Z,5.20
2018-08-25T03:01:45.199Z,5.20
2018-08-25T03:04:14.011Z,4.57
2018-08-25T03:06:42.896Z,3.80
2018-08-25T03:09:13.134Z,3.70
2018-08-25T03:11:41.967Z,3.30
2018-08-25T03:14:10.693Z,3.60
2018-08-25T03:16:39.624Z,3.57
2018-08-25T03:19:08.789Z,3.17
2018-08-25T03:21:37.910Z,3.00
2018-08-25T03:24:07.000Z,3.07
2018-08-25T03:26:36.054Z,2.40
2018-08-25T03:29:04.919Z,2.77
2018-08-25T03:31:33.590Z,2.60
2018-08-25T03:34:02.642Z,2.70
2018-08-25T03:36:31.415Z,3.60
2018-08-25T03:39:00.208Z,3.10
2018-08-25T03:41:28.830Z,2.83
2018-08-25T03:43:57.801Z,3.20
2018-08-25T03:46:26.778Z,3.50
2018-08-25T03:48:55.675Z,3.13
2018-08-25T03:51:24.385Z,3.60
2018-08-25T03:53:53.298Z,4.03
2018-08-25T03:56:22.145Z,3.80
2018-08-25T03:58:50.866Z,4.20
2018-08-25T04:01:19.680Z,4.17
2018-08-25T04:03:48.456Z,4.60
2018-08-25T04:06:17.099Z,4.60
2018-08-25T04:08:46.108Z,4.60
2018-08-25T04:11:15.068Z,4.30
2018-08-25T04:13:43.784Z,3.63
2018-08-25T04:16:13.116Z,3.70
2018-08-25T04:18:42.245Z,3.87
2018-08-25T04:21:11.085Z,3.90
2018-08-25T04:23:39.788Z,3.50
2018-08-25T04:26:08.638Z,3.57
2018-08-25T04:28:37.570Z,4.07
2018-08-25T04:31:06.808Z,3.60
2018-08-25T04:33:35.829Z,3.77
2018-08-25T04:36:04.765Z,3.60
2018-08-25T04:38:33.586Z,3.23
2018-08-25T04:41:02.324Z,3.70
2018-08-25T04:43:31.218Z,3.60
2018-08-25T04:46:00.034Z,3.20
2018-08-25T04:48:28.773Z,2.90
2018-08-25T04:50:57.503Z,2.80
2018-08-25T04:53:26.317Z,2.70
2018-08-25T04:55:55.399Z,2.70
2018-08-25T04:58:24.375Z,2.80
2018-08-25T05:00:53.123Z,2.93
2018-08-25T05:03:22.151Z,3.13
2018-08-25T05:05:51.137Z,3.07
2018-08-25T05:08:19.924Z,3.57
2018-08-25T05:10:49.035Z,3.03
2018-08-25T05:13:17.865Z,3.43
2018-08-25T05:15:46.897Z,2.80
2018-08-25T05:18:15.703Z,3.50
2018-08-25T05:20:44.785Z,3.20
2018-08-25T05:23:13.748Z,3.90
2018-08-25T05:25:42.466Z,3.60
2018-08-25T05:28:11.288Z,3.43
2018-08-25T05:30:40.152Z,3.60
2018-08-25T05:33:08.954Z,4.00
2018-08-25T05:35:37.767Z,3.77
2018-08-25T05:38:06.844Z,3.37
2018-08-25T05:40:35.713Z,3.70
2018-08-25T05:43:04.475Z,3.73
2018-08-25T05:45:33.563Z,3.90
2018-08-25T05:48:02.352Z,4.20
2018-08-25T05:50:31.087Z,3.80
2018-08-25T05:53:00.102Z,4.30
2018-08-25T05:55:29.121Z,4.10
2018-08-25T05:57:57.941Z,3.93
2018-08-25T06:00:26.841Z,3.73
2018-08-25T06:02:55.475Z,3.93
2018-08-25T06:05:24.147Z,4.20
2018-08-25T06:07:52.972Z,4.07
2018-08-25T06:10:21.942Z,3.50
2018-08-25T06:12:50.840Z,3.20
2018-08-25T06:15:19.563Z,3.00
2018-08-25T06:17:48.476Z,2.60
2018-08-25T06:20:17.210Z,2.53
2018-08-25T06:22:46.160Z,2.50
2018-08-25T06:25:14.774Z,2.50
2018-08-25T06:27:43.960Z,2.30
2018-08-25T06:30:12.998Z,2.70
2018-08-25T06:32:41.862Z,2.60
2018-08-25T06:35:10.993Z,2.47
2018-08-25T06:37:39.723Z,2.43
2018-08-25T06:40:08.491Z,1.93
2018-08-25T06:42:37.493Z,2.07
2018-08-25T06:45:06.845Z,2.10
2018-08-25T06:47:35.690Z,2.20
2018-08-25T06:50:04.581Z,1.70
2018-08-25T06:52:33.392Z,1.67
2018-08-25T06:55:02.174Z,1.67
2018-08-25T06:57:31.137Z,1.67
2018-08-25T07:00:00.088Z,1.30
2018-08-25T07:02:28.840Z,1.50
2018-08-25T07:04:57.739Z,1.30
2018-08-25T07:07:26.532Z,1.33
2018-08-25T07:09:55.349Z,1.30
2018-08-25T07:12:24.416Z,1.20
2018-08-25T07:14:53.226Z,1.30
2018-08-25T07:17:22.275Z,1.50
2018-08-25T07:19:51.196Z,1.50
2018-08-25T07:22:20.002Z,1.07
2018-08-25T07:24:48.809Z,1.10
2018-08-25T07:27:17.638Z,1.10
2018-08-25T07:29:46.445Z,1.03
2018-08-25T07:32:15.304Z,1.40
2018-08-25T07:34:44.009Z,1.10
2018-08-25T07:37:12.973Z,1.17
2018-08-25T07:39:41.727Z,1.10
2018-08-25T07:42:10.541Z,1.30
2018-08-25T07:44:39.631Z,1.40
2018-08-25T07:47:08.777Z,1.20
2018-08-25T07:49:37.749Z,1.00
2018-08-25T07:52:06.822Z,1.40
2018-08-25T07:54:35.527Z,1.27
2018-08-25T07:57:04.238Z,1.07
2018-08-25T07:59:33.156Z,1.10
2018-08-25T08:02:01.881Z,1.37
2018-08-25T08:04:30.563Z,1.07
2018-08-25T08:06:59.263Z,1.37
2018-08-25T08:09:27.940Z,1.20
2018-08-25T08:11:56.780Z,1.23
2018-08-25T08:14:25.412Z,1.20
2018-08-25T08:16:54.301Z,1.33
2018-08-25T08:19:23.053Z,1.17
2018-08-25T08:21:51.825Z,1.20
2018-08-25T08:24:20.503Z,1.50
2018-08-25T08:26:49.502Z,1.20
2018-08-25T08:29:18.322Z,1.10
2018-08-25T08:31:47.219Z,1.27
2018-08-25T08:34:16.044Z,1.20
2018-08-25T08:36:44.731Z,1.40
2018-08-25T08:39:13.569Z,1.50
2018-08-25T08:41:42.223Z,1.30
2018-08-25T08:44:11.301Z,1.30
2018-08-25T08:46:40.211Z,1.17
2018-08-25T08:49:09.985Z,1.20
2018-08-25T08:51:39.039Z,1.30
2018-08-25T08:54:07.694Z,1.40
2018-08-25T08:56:36.725Z,1.20
2018-08-25T08:59:05.355Z,1.17
2018-08-25T09:01:34.065Z,1.47
2018-08-25T09:04:02.906Z,1.60
2018-08-25T09:06:31.522Z,1.33
2018-08-25T09:09:00.201Z,1.30
2018-08-25T09:11:28.890Z,1.40
2018-08-25T09:13:57.773Z,1.60
2018-08-25T09:16:26.654Z,1.53
2018-08-25T09:18:55.626Z,1.37
2018-08-25T09:21:24.292Z,1.57
2018-08-25T09:23:53.141Z,1.47
2018-08-25T09:26:22.163Z,1.40
2018-08-25T09:28:51.352Z,1.40
2018-08-25T09:31:20.282Z,1.37
2018-08-25T09:33:49.409Z,1.53
2018-08-25T09:36:18.416Z,1.20
2018-08-25T09:38:47.012Z,1.50
2018-08-25T09:41:15.849Z,1.37
2018-08-25T09:43:44.842Z,1.60
2018-08-25T09:46:13.756Z,1.60
2018-08-25T09:48:42.484Z,1.40
2018-08-25T09:51:11.481Z,1.47
2018-08-25T09:53:40.110Z,1.60
2018-08-25T09:56:08.976Z,1.77
2018-08-25T09:58:37.896Z,1.40
2018-08-25T10:01:11.130Z,1.70
2018-08-25T10:03:39.755Z,1.30
2018-08-25T10:06:08.854Z,1.57
2018-08-25T10:08:37.462Z,1.50
2018-08-25T10:11:06.410Z,1.30
2018-08-25T10:13:35.039Z,1.40
2018-08-25T10:16:03.668Z,1.70
2018-08-25T10:18:32.735Z,1.53
2018-08-25T10:21:01.869Z,1.33
2018-08-25T10:23:30.685Z,1.10
2018-08-25T10:25:59.450Z,1.93
2018-08-25T10:28:28.340Z,1.37
2018-08-25T10:30:57.255Z,1.57
2018-08-25T10:33:26.437Z,1.37
2018-08-25T10:35:55.363Z,1.40
2018-08-25T10:38:24.246Z,1.30
2018-08-25T10:40:53.130Z,1.50
2018-08-25T10:43:21.958Z,1.17
2018-08-25T10:45:50.776Z,1.23
2018-08-25T10:48:19.518Z,1.17
2018-08-25T10:50:49.167Z,1.10
2018-08-25T10:53:18.214Z,1.30
2018-08-25T10:55:47.110Z,1.30
2018-08-25T10:58:15.850Z,1.20
2018-08-25T11:00:44.632Z,1.40
2018-08-25T11:03:13.676Z,1.50
2018-08-25T11:05:42.358Z,1.30
2018-08-25T11:08:11.346Z,1.30
2018-08-25T11:10:40.044Z,1.20
2018-08-25T11:13:08.760Z,1.27
2018-08-25T11:15:37.388Z,1.60
2018-08-25T11:18:06.238Z,1.43
2018-08-25T11:20:34.910Z,1.33
2018-08-25T11:23:03.942Z,1.40
2018-08-25T11:25:32.890Z,1.23
2018-08-25T11:28:01.800Z,1.50
2018-08-25T11:30:30.548Z,1.30
2018-08-25T11:32:59.478Z,1.43
2018-08-25T11:35:28.102Z,1.10
2018-08-25T11:37:56.811Z,0.93
2018-08-25T11:40:25.753Z,1.37
2018-08-25T11:42:54.424Z,1.30
2018-08-25T11:45:23.209Z,1.20
2018-08-25T11:47:51.869Z,1.23
2018-08-25T11:50:20.525Z,1.13
2018-08-25T11:52:49.742Z,1.40
2018-08-25T11:55:18.439Z,1.50
2018-08-25T11:57:47.134Z,1.40
2018-08-25T12:00:15.809Z,1.30
2018-08-25T12:02:44.532Z,1.30
2018-08-25T12:05:13.866Z,1.30
2018-08-25T12:07:42.740Z,1.70
2018-08-25T12:10:11.584Z,1.43
2018-08-25T12:12:40.530Z,1.30
2018-08-25T12:15:09.376Z,1.10
2018-08-25T12:17:38.550Z,1.20
2018-08-25T12:20:07.722Z,1.00
2018-08-25T12:22:36.949Z,1.13
2018-08-25T12:25:06.235Z,1.10
2018-08-25T12:27:35.255Z,1.10
2018-08-25T12:30:04.176Z,1.00
2018-08-25T12:32:33.001Z,0.93
2018-08-25T12:35:01.936Z,1.10
2018-08-25T12:37:30.561Z,1.10
2018-08-25T12:39:59.217Z,0.90
2018-08-25T12:42:27.976Z,0.90
2018-08-25T12:44:56.764Z,1.30
2018-08-25T12:47:26.950Z,0.90
2018-08-25T12:49:57.309Z,0.83
2018-08-25T12:52:26.065Z,1.00
2018-08-25T12:54:54.729Z,0.90
2018-08-25T12:57:23.545Z,1.00
2018-08-25T12:59:52.436Z,0.80
2018-08-25T13:02:21.233Z,1.10
2018-08-25T13:04:49.996Z,1.00
2018-08-25T13:07:19.335Z,0.87
2018-08-25T13:09:48.306Z,1.00
2018-08-25T13:12:17.312Z,0.73
2018-08-25T13:14:46.284Z,0.77
2018-08-25T13:17:15.459Z,0.87
2018-08-25T13:19:44.200Z,1.20
2018-08-25T13:22:12.972Z,1.17
2018-08-25T13:24:41.655Z,0.90
2018-08-25T13:27:10.260Z,1.10
2018-08-25T13:29:39.139Z,1.27
2018-08-25T13:32:07.941Z,1.40
2018-08-25T13:34:36.675Z,1.10
2018-08-25T13:37:05.316Z,1.30
2018-08-25T13:39:34.212Z,1.33
2018-08-25T13:42:03.136Z,1.33
2018-08-25T13:44:31.977Z,1.33
2018-08-25T13:47:00.878Z,1.17
2018-08-25T13:49:30.274Z,1.20
2018-08-25T13:51:58.989Z,1.10
2018-08-25T13:54:27.862Z,1.30
2018-08-25T13:56:56.546Z,1.30
2018-08-25T13:59:25.239Z,1.30
2018-08-25T14:01:53.908Z,1.20
2018-08-25T14:04:22.714Z,1.20
2018-08-25T14:06:51.858Z,1.20
2018-08-25T14:09:20.523Z,1.40
2018-08-25T14:11:49.301Z,1.27
2018-08-25T14:14:18.033Z,1.20
2018-08-25T14:16:46.829Z,1.50
2018-08-25T14:19:16.070Z,1.30
2018-08-25T14:21:44.810Z,1.13
2018-08-25T14:24:14.079Z,1.20
2018-08-25T14:26:43.153Z,1.27
2018-08-25T14:29:11.856Z,1.30
2018-08-25T14:31:40.736Z,1.60
2018-08-25T14:34:09.584Z,1.13
2018-08-25T14:36:38.377Z,1.20
2018-08-25T14:39:08.876Z,1.27
2018-08-25T14:41:37.788Z,1.33
2018-08-25T14:44:07.281Z,1.23
2018-08-25T14:46:37.370Z,1.30
2018-08-25T14:49:06.888Z,1.10
2018-08-25T14:51:36.125Z,1.00
2018-08-25T14:54:04.931Z,0.87
2018-08-25T14:56:33.963Z,1.43
2018-08-25T14:59:02.955Z,0.70
2018-08-25T15:01:31.905Z,0.60
2018-08-25T15:04:00.563Z,0.80
2018-08-25T15:06:29.217Z,0.90
2018-08-25T15:08:57.981Z,0.90
2018-08-25T15:11:26.709Z,0.80
2018-08-25T15:13:55.415Z,1.00
2018-08-25T15:16:24.397Z,0.87
2018-08-25T15:18:53.675Z,1.17
2018-08-25T15:21:22.332Z,1.17
2018-08-25T15:23:51.265Z,1.00
2018-08-25T15:26:20.348Z,1.13
2018-08-25T15:28:49.118Z,0.90
2018-08-25T15:31:18.133Z,1.20
2018-08-25T15:33:46.845Z,1.10
2018-08-25T15:36:15.739Z,1.33
2018-08-25T15:38:44.988Z,1.00
2018-08-25T15:41:13.880Z,1.03
2018-08-25T15:43:42.932Z,1.40
2018-08-25T15:46:11.804Z,1.30
2018-08-25T15:48:40.508Z,1.30
2018-08-25T15:51:09.326Z,1.13
2018-08-25T15:53:38.312Z,1.20
2018-08-25T15:56:07.090Z,1.17
2018-08-25T15:58:36.057Z,1.43
2018-08-25T16:01:05.240Z,1.70
2018-08-25T16:03:34.368Z,1.37
2018-08-25T16:06:03.256Z,1.23
2018-08-25T16:08:32.304Z,1.17
2018-08-25T16:11:00.933Z,1.50
2018-08-25T16:13:29.716Z,1.60
2018-08-25T16:15:58.489Z,0.90
2018-08-25T16:18:27.440Z,1.40
2018-08-25T16:20:56.117Z,1.17
2018-08-25T16:23:25.115Z,1.20
2018-08-25T16:25:54.517Z,1.20
2018-08-25T16:28:23.560Z,1.20
2018-08-25T16:30:52.789Z,0.90
2018-08-25T16:33:21.949Z,1.03
2018-08-25T16:35:50.794Z,1.23
2018-08-25T16:38:19.670Z,1.37
2018-08-25T16:40:48.387Z,1.00
2018-08-25T16:43:17.457Z,1.07
2018-08-25T16:45:46.447Z,1.40
2018-08-25T16:48:15.448Z,1.20
2018-08-25T16:50:44.233Z,1.50
2018-08-25T16:53:12.971Z,1.30
2018-08-25T16:55:42.027Z,1.20
2018-08-25T16:58:10.964Z,1.37
2018-08-25T17:00:39.848Z,1.30
2018-08-25T17:03:08.469Z,1.13
2018-08-25T17:05:37.188Z,1.17
2018-08-25T17:08:05.924Z,1.20
2018-08-25T17:10:35.343Z,0.90
2018-08-25T17:13:04.182Z,0.90
2018-08-25T17:15:32.925Z,0.80
2018-08-25T17:18:01.900Z,0.60
2018-08-25T17:20:30.602Z,0.80
2018-08-25T17:22:59.626Z,0.70
2018-08-25T17:25:28.555Z,0.60
2018-08-25T17:27:57.819Z,0.73
2018-08-25T17:30:26.533Z,0.70
2018-08-25T17:32:55.205Z,0.90
2018-08-25T17:35:24.206Z,0.60
2018-08-25T17:37:53.134Z,0.90
2018-08-25T17:40:21.921Z,0.73
2018-08-25T17:42:50.799Z,0.90
2018-08-25T17:45:19.732Z,0.80
2018-08-25T17:47:48.389Z,0.60
2018-08-25T17:50:17.215Z,0.80
2018-08-25T17:52:46.016Z,0.73
2018-08-25T17:55:15.228Z,0.60
2018-08-25T17:57:44.246Z,0.67
2018-08-25T18:00:14.486Z,0.70
2018-08-25T18:02:43.413Z,0.83
2018-08-25T18:05:12.939Z,0.90
2018-08-25T18:07:42.216Z,0.80
2018-08-25T18:10:11.065Z,0.97
2018-08-25T18:12:39.896Z,0.80
2018-08-25T18:15:08.972Z,0.90
2018-08-25T18:17:37.807Z,0.83
2018-08-25T18:20:06.590Z,0.80
2018-08-25T18:22:35.307Z,0.63
2018-08-25T18:25:04.119Z,0.87
2018-08-25T18:27:33.182Z,0.60
2018-08-25T18:30:01.968Z,0.90
2018-08-25T18:32:30.792Z,1.53
2018-08-25T18:34:59.667Z,0.70
2018-08-25T18:37:28.585Z,1.00
2018-08-25T18:39:57.433Z,1.10
2018-08-25T18:42:26.128Z,0.80
2018-08-25T18:44:55.233Z,1.00
2018-08-25T18:47:24.125Z,0.90
2018-08-25T18:49:53.047Z,0.80
2018-08-25T18:52:21.798Z,0.73
2018-08-25T18:54:50.944Z,0.80
2018-08-25T18:57:20.461Z,1.10
2018-08-25T18:59:49.501Z,0.97
2018-08-25T19:02:18.542Z,0.70
2018-08-25T19:04:47.259Z,0.90
2018-08-25T19:07:16.090Z,0.90
2018-08-25T19:09:44.705Z,0.70
2018-08-25T19:12:13.719Z,0.80
2018-08-25T19:14:42.609Z,1.17
2018-08-25T19:17:11.311Z,1.00
2018-08-25T19:19:40.268Z,1.10
2018-08-25T19:22:09.095Z,1.03
2018-08-25T19:24:37.762Z,0.90
2018-08-25T19:27:06.403Z,0.93
2018-08-25T19:29:35.405Z,1.20
2018-08-25T19:32:04.320Z,0.80
2018-08-25T19:34:33.204Z,0.90
2018-08-25T19:37:02.519Z,0.90
2018-08-25T19:39:31.400Z,1.00
2018-08-25T19:42:00.280Z,1.20
2018-08-25T19:44:29.266Z,1.10
2018-08-25T19:46:58.319Z,1.20
2018-08-25T19:50:30.076Z,1.30
2018-08-25T19:52:58.867Z,1.27
2018-08-25T19:55:27.856Z,1.00
2018-08-25T19:57:57.002Z,1.07
2018-08-25T20:00:26.490Z,2.23
2018-08-25T20:02:55.676Z,1.30
2018-08-25T20:05:24.554Z,1.00
2018-08-25T20:07:53.526Z,1.30
2018-08-25T20:10:22.126Z,1.00
2018-08-25T20:12:51.068Z,1.13
2018-08-25T20:15:20.084Z,0.90
2018-08-25T20:17:50.690Z,0.90
2018-08-25T20:20:19.571Z,1.13
2018-08-25T20:22:48.573Z,1.10
2018-08-25T20:25:17.471Z,0.80
2018-08-25T20:27:46.806Z,1.20
2018-08-25T20:30:15.604Z,1.13
2018-08-25T20:32:44.513Z,1.07
2018-08-25T20:35:13.364Z,1.20
2018-08-25T20:37:42.180Z,1.00
2018-08-25T20:40:10.968Z,0.87
2018-08-25T20:42:39.743Z,1.07
2018-08-25T20:45:08.992Z,1.10
2018-08-25T20:47:37.721Z,1.53
2018-08-25T20:50:08.721Z,1.20
2018-08-25T20:52:38.528Z,1.30
2018-08-25T20:55:07.299Z,1.23
2018-08-25T20:57:36.576Z,1.00
2018-08-25T21:00:06.147Z,1.20
2018-08-25T21:02:35.304Z,1.20
2018-08-25T21:05:05.217Z,1.17
2018-08-25T21:07:34.172Z,1.20
2018-08-25T21:10:03.156Z,1.20
2018-08-25T21:12:31.864Z,1.13
2018-08-25T21:15:00.888Z,1.40
2018-08-25T21:17:30.062Z,1.60
2018-08-25T21:19:58.735Z,1.50
2018-08-25T21:22:27.451Z,1.40
2018-08-25T21:24:56.407Z,1.10
2018-08-25T21:27:25.285Z,1.47
2018-08-25T21:29:54.046Z,1.37
2018-08-25T21:32:23.399Z,1.00
2018-08-25T21:34:52.255Z,1.23
2018-08-25T21:37:21.513Z,1.40
2018-08-25T21:39:50.285Z,1.00
2018-08-25T21:42:18.966Z,0.90
2018-08-25T21:44:47.755Z,1.33
2018-08-25T21:47:16.548Z,1.30
2018-08-25T21:49:45.796Z,1.30
2018-08-25T21:52:14.849Z,1.10
2018-08-25T21:54:43.686Z,0.97
2018-08-25T21:57:12.479Z,1.40
2018-08-25T21:59:41.363Z,1.10
2018-08-25T22:02:14.153Z,1.20
2018-08-25T22:04:42.948Z,1.07
2018-08-25T22:07:11.832Z,1.20
2018-08-25T22:09:40.776Z,1.23
2018-08-25T22:12:10.183Z,1.43
2018-08-25T22:14:39.032Z,1.30
2018-08-25T22:17:08.591Z,1.23
2018-08-25T22:19:37.586Z,1.40
2018-08-25T22:22:07.731Z,1.23
2018-08-25T22:24:36.606Z,1.10
2018-08-25T22:27:05.743Z,1.23
2018-08-25T22:29:34.424Z,1.40
2018-08-25T22:32:03.573Z,1.33
2018-08-25T22:34:32.154Z,1.20
2018-08-25T22:37:00.829Z,1.10
2018-08-25T22:39:29.582Z,1.30
2018-08-25T22:41:58.423Z,0.93
2018-08-25T22:44:27.203Z,1.40
2018-08-25T22:46:56.058Z,1.20
2018-08-25T22:49:24.826Z,1.30
2018-08-25T22:51:53.617Z,1.07
2018-08-25T22:54:22.337Z,1.13
2018-08-25T22:56:51.164Z,1.30
2018-08-25T22:59:20.015Z,1.30
2018-08-25T23:01:48.707Z,1.90
2018-08-25T23:04:17.285Z,3.30
2018-08-25T23:06:46.013Z,2.50
2018-08-25T23:09:14.865Z,1.70
2018-08-25T23:11:43.504Z,1.80
2018-08-25T23:14:12.188Z,1.30
2018-08-25T23:16:41.913Z,1.47
2018-08-25T23:19:10.683Z,1.50
2018-08-25T23:21:39.343Z,1.60
2018-08-25T23:24:07.963Z,1.70
2018-08-25T23:26:36.793Z,1.50
2018-08-25T23:29:05.726Z,1.40
2018-08-25T23:31:34.567Z,1.30
2018-08-25T23:34:03.651Z,1.33
2018-08-25T23:36:32.418Z,1.40
2018-08-25T23:39:01.194Z,1.43
2018-08-25T23:41:30.091Z,1.30
2018-08-25T23:43:58.928Z,1.40
2018-08-25T23:46:27.705Z,1.33
2018-08-25T23:48:56.834Z,1.33
2018-08-25T23:51:25.690Z,1.50
2018-08-25T23:53:54.470Z,1.43
2018-08-25T23:56:23.463Z,1.50
2018-08-25T23:58:52.323Z,1.50
